createdAt,value
2018-08-17T00:02:23.396Z,6.80
2018-08-17T00:04:51.653Z,6.87
2018-08-17T00:07:19.912Z,6.60
2018-08-17T00:09:48.174Z,9.57
2018-08-17T00:12:16.425Z,6.53
2018-08-17T00:14:44.795Z,6.33
2018-08-17T00:17:13.066Z,5.90
2018-08-17T00:19:41.337Z,6.33
2018-08-17T00:22:09.627Z,6.10
2018-08-17T00:24:37.897Z,6.70
2018-08-17T00:27:06.172Z,7.43
2018-08-17T00:29:34.423Z,6.07
2018-08-17T00:32:02.787Z,5.47
2018-08-17T00:34:31.045Z,6.33
2018-08-17T00:36:59.315Z,10.47
2018-08-17T00:39:27.583Z,9.13
2018-08-17T00:41:55.922Z,8.80
2018-08-17T00:44:24.195Z,6.67
2018-08-17T00:46:52.457Z,7.03
2018-08-17T00:49:20.708Z,8.20
2018-08-17T00:51:48.963Z,6.97
2018-08-17T00:54:17.204Z,9.10
2018-08-17T00:56:45.463Z,6.40
2018-08-17T00:59:13.705Z,6.93
2018-08-17T01:01:41.964Z,7.27
2018-08-17T01:04:10.211Z,6.40
2018-08-17T01:06:38.482Z,7.83
2018-08-17T01:09:08.449Z,7.20
2018-08-17T01:11:36.710Z,7.80
2018-08-17T01:14:04.954Z,7.13
2018-08-17T01:16:33.330Z,7.20
2018-08-17T01:19:01.574Z,7.17
2018-08-17T01:21:29.882Z,7.77
2018-08-17T01:23:58.482Z,8.00
2018-08-17T01:26:26.730Z,7.70
2018-08-17T01:28:55.055Z,6.63
2018-08-17T01:31:23.293Z,6.63
2018-08-17T01:33:51.555Z,5.90
2018-08-17T01:36:19.798Z,8.80
2018-08-17T01:38:48.090Z,7.03
2018-08-17T01:41:16.378Z,6.30
2018-08-17T01:43:44.631Z,7.30
2018-08-17T01:46:12.942Z,7.17
2018-08-17T01:48:41.196Z,6.83
2018-08-17T01:51:09.433Z,7.47
2018-08-17T01:53:37.674Z,7.37
2018-08-17T01:56:05.915Z,7.50
2018-08-17T01:58:34.150Z,7.13
2018-08-17T02:01:02.416Z,6.83
2018-08-17T02:03:30.852Z,7.23
2018-08-17T02:05:59.135Z,7.03
2018-08-17T02:08:27.408Z,10.63
2018-08-17T02:10:55.660Z,7.87
2018-08-17T02:13:24.007Z,7.60
2018-08-17T02:15:52.249Z,7.80
2018-08-17T02:18:21.453Z,8.33
2018-08-17T02:20:49.828Z,6.97
2018-08-17T02:23:18.097Z,7.03
2018-08-17T02:25:46.338Z,7.40
2018-08-17T02:28:14.586Z,7.40
2018-08-17T02:30:42.826Z,7.27
2018-08-17T02:33:11.061Z,6.97
2018-08-17T02:35:39.306Z,6.83
2018-08-17T02:38:07.548Z,6.40
2018-08-17T02:40:35.869Z,7.07
2018-08-17T02:43:04.134Z,6.37
2018-08-17T02:45:32.370Z,7.03
2018-08-17T02:48:00.688Z,7.20
2018-08-17T02:50:28.971Z,7.23
2018-08-17T02:52:57.237Z,7.77
2018-08-17T02:55:25.498Z,7.53
2018-08-17T02:57:53.764Z,8.23
2018-08-17T03:00:22.023Z,9.43
2018-08-17T03:02:50.298Z,10.30
2018-08-17T03:05:18.568Z,8.20
2018-08-17T03:07:46.903Z,7.87
2018-08-17T03:10:15.151Z,8.37
2018-08-17T03:12:43.482Z,8.73
2018-08-17T03:15:11.734Z,9.10
2018-08-17T03:17:39.993Z,8.90
2018-08-17T03:20:08.264Z,9.53
2018-08-17T03:22:36.519Z,9.00
2018-08-17T03:25:04.785Z,8.97
2018-08-17T03:27:33.238Z,10.00
2018-08-17T03:30:01.520Z,9.30
2018-08-17T03:32:29.777Z,8.80
2018-08-17T03:34:58.030Z,8.47
2018-08-17T03:37:26.296Z,8.90
2018-08-17T03:39:54.555Z,9.17
2018-08-17T03:42:22.816Z,9.97
2018-08-17T03:44:51.070Z,8.30
2018-08-17T03:47:19.358Z,10.50
2018-08-17T03:49:47.613Z,8.43
2018-08-17T03:52:15.863Z,9.40
2018-08-17T03:54:44.139Z,9.53
2018-08-17T03:57:12.390Z,9.83
2018-08-17T03:59:40.647Z,8.83
2018-08-17T04:02:08.904Z,10.87
2018-08-17T04:04:37.360Z,9.43
2018-08-17T04:07:05.946Z,9.20
2018-08-17T04:09:34.227Z,10.27
2018-08-17T04:12:02.486Z,9.43
2018-08-17T04:14:31.754Z,9.33
2018-08-17T04:17:00.042Z,8.73
2018-08-17T04:19:28.293Z,8.50
2018-08-17T04:21:56.582Z,8.70
2018-08-17T04:24:24.870Z,9.33
2018-08-17T04:26:53.123Z,7.97
2018-08-17T04:29:21.659Z,8.33
2018-08-17T04:31:49.966Z,8.83
2018-08-17T04:34:18.251Z,9.87
2018-08-17T04:36:46.535Z,9.10
2018-08-17T04:39:14.832Z,9.10
2018-08-17T04:41:43.150Z,10.53
2018-08-17T04:44:11.411Z,8.57
2018-08-17T04:46:39.658Z,8.77
2018-08-17T04:49:07.917Z,9.33
2018-08-17T04:51:36.170Z,8.73
2018-08-17T04:54:04.431Z,8.27
2018-08-17T04:56:32.702Z,8.50
2018-08-17T04:59:00.943Z,8.57
2018-08-17T05:01:29.188Z,8.60
2018-08-17T05:03:57.456Z,10.93
2018-08-17T05:06:25.718Z,8.43
2018-08-17T05:08:53.992Z,8.63
2018-08-17T05:11:22.239Z,9.00
2018-08-17T05:13:50.478Z,8.83
2018-08-17T05:16:18.727Z,9.23
2018-08-17T05:18:46.961Z,8.03
2018-08-17T05:21:15.209Z,8.10
2018-08-17T05:23:43.465Z,7.77
2018-08-17T05:26:11.741Z,11.70
2018-08-17T05:28:39.991Z,7.60
2018-08-17T05:31:08.260Z,8.37
2018-08-17T05:33:36.542Z,7.97
2018-08-17T05:36:04.888Z,8.33
2018-08-17T05:38:33.114Z,7.63
2018-08-17T05:41:01.366Z,8.27
2018-08-17T05:43:29.618Z,8.53
2018-08-17T05:45:57.870Z,9.40
2018-08-17T05:48:26.117Z,8.57
2018-08-17T05:50:54.602Z,8.93
2018-08-17T05:53:22.972Z,8.23
2018-08-17T05:55:52.359Z,8.53
2018-08-17T05:58:20.794Z,10.50
2018-08-17T06:00:49.143Z,8.17
2018-08-17T06:03:17.409Z,9.00
2018-08-17T06:05:45.781Z,9.47
2018-08-17T06:08:14.040Z,8.07
2018-08-17T06:10:42.356Z,7.83
2018-08-17T06:13:10.830Z,7.80
2018-08-17T06:15:39.166Z,8.00
2018-08-17T06:18:07.420Z,8.40
2018-08-17T06:20:35.679Z,7.87
2018-08-17T06:23:03.981Z,7.73
2018-08-17T06:25:32.380Z,9.73
2018-08-17T06:28:00.680Z,8.20
2018-08-17T06:30:28.938Z,8.23
2018-08-17T06:32:57.324Z,8.00
2018-08-17T06:35:26.328Z,9.30
2018-08-17T06:37:54.707Z,7.97
2018-08-17T06:42:07.679Z,9.33
2018-08-17T06:44:36.004Z,6.67
2018-08-17T06:47:04.605Z,7.57
2018-08-17T06:49:32.936Z,7.10
2018-08-17T06:52:01.207Z,7.07
2018-08-17T06:54:29.540Z,6.00
2018-08-17T06:56:57.919Z,5.03
2018-08-17T06:59:26.173Z,5.27
2018-08-17T07:01:54.418Z,5.37
2018-08-17T07:04:22.794Z,5.00
2018-08-17T07:06:51.062Z,5.77
2018-08-17T07:09:19.553Z,4.30
2018-08-17T07:11:47.910Z,5.17
2018-08-17T07:14:16.235Z,4.20
2018-08-17T07:16:44.589Z,5.47
2018-08-17T07:19:12.980Z,4.90
2018-08-17T07:21:41.272Z,6.27
2018-08-17T07:24:09.583Z,4.40
2018-08-17T07:26:37.892Z,4.40
2018-08-17T07:29:06.173Z,5.03
2018-08-17T07:31:34.433Z,4.67
2018-08-17T07:34:02.702Z,4.20
2018-08-17T07:36:30.992Z,4.72
2018-08-17T07:38:59.304Z,6.53
2018-08-17T07:41:27.856Z,4.40
2018-08-17T07:43:56.173Z,3.85
2018-08-17T07:46:24.475Z,4.75
2018-08-17T07:48:52.893Z,3.98
2018-08-17T07:51:21.166Z,3.40
2018-08-17T07:53:50.109Z,4.05
2018-08-17T07:56:18.382Z,3.40
2018-08-17T07:58:46.870Z,5.33
2018-08-17T08:01:16.044Z,5.78
2018-08-17T08:03:44.622Z,5.80
2018-08-17T08:06:12.890Z,3.65
2018-08-17T08:08:41.152Z,3.15
2018-08-17T08:11:09.687Z,3.20
2018-08-17T08:13:37.959Z,5.05
2018-08-17T08:16:06.431Z,3.52
2018-08-17T08:18:34.684Z,5.65
2018-08-17T08:21:02.949Z,4.62
2018-08-17T08:23:31.455Z,3.33
2018-08-17T08:25:59.831Z,5.60
2018-08-17T08:28:28.096Z,3.45
2018-08-17T08:30:56.459Z,3.80
2018-08-17T08:33:24.740Z,2.98
2018-08-17T08:35:52.994Z,4.97
2018-08-17T08:38:21.251Z,2.98
2018-08-17T08:40:49.515Z,4.03
2018-08-17T08:43:17.766Z,3.75
2018-08-17T08:45:46.055Z,5.30
2018-08-17T08:48:14.321Z,5.42
2018-08-17T08:50:42.583Z,6.37
2018-08-17T08:53:11.010Z,2.75
2018-08-17T08:55:39.780Z,3.10
2018-08-17T08:58:08.615Z,4.70
2018-08-17T09:00:37.707Z,7.65
2018-08-17T09:03:07.524Z,4.55
2018-08-17T09:05:36.656Z,4.42
2018-08-17T09:08:06.614Z,3.33
2018-08-17T09:10:35.838Z,4.12
2018-08-17T09:13:05.437Z,5.78
2018-08-17T09:15:34.375Z,3.33
2018-08-17T09:18:03.209Z,3.65
2018-08-17T09:20:32.323Z,4.58
2018-08-17T09:23:01.166Z,6.28
2018-08-17T09:25:30.132Z,3.62
2018-08-17T09:27:59.095Z,4.25
2018-08-17T09:30:27.964Z,2.47
2018-08-17T09:32:56.862Z,3.90
2018-08-17T09:35:25.845Z,3.25
2018-08-17T09:37:54.760Z,2.25
2018-08-17T09:40:23.695Z,2.37
2018-08-17T09:42:52.468Z,3.40
2018-08-17T09:45:21.375Z,2.45
2018-08-17T09:47:50.264Z,1.90
2018-08-17T09:50:19.682Z,4.28
2018-08-17T09:52:48.497Z,5.37
2018-08-17T09:55:17.221Z,2.70
2018-08-17T09:57:45.899Z,2.15
2018-08-17T10:00:14.810Z,2.40
2018-08-17T10:02:48.816Z,2.80
2018-08-17T10:05:22.828Z,3.15
2018-08-17T10:07:57.107Z,2.30
2018-08-17T10:10:26.985Z,3.20
2018-08-17T10:12:55.736Z,3.05
2018-08-17T10:15:24.589Z,2.42
2018-08-17T10:17:53.768Z,3.02
2018-08-17T10:20:23.246Z,3.45
2018-08-17T10:22:52.283Z,4.35
2018-08-17T10:25:24.507Z,3.72
2018-08-17T10:27:57.938Z,3.60
2018-08-17T10:30:27.550Z,2.45
2018-08-17T10:32:57.809Z,3.17
2018-08-17T10:35:30.875Z,3.20
2018-08-17T10:38:01.962Z,3.30
2018-08-17T10:40:31.056Z,2.50
2018-08-17T10:43:01.927Z,2.20
2018-08-17T10:45:31.240Z,2.75
2018-08-17T10:48:00.314Z,3.25
2018-08-17T10:50:30.640Z,2.27
2018-08-17T10:53:00.861Z,2.30
2018-08-17T10:55:41.072Z,4.70
2018-08-17T10:58:11.448Z,2.40
2018-08-17T11:00:40.595Z,3.92
2018-08-17T11:03:09.522Z,6.15
2018-08-17T11:05:38.450Z,2.27
2018-08-17T11:08:07.611Z,3.95
2018-08-17T11:10:36.600Z,1.90
2018-08-17T11:13:05.639Z,2.55
2018-08-17T11:15:34.494Z,2.85
2018-08-17T11:18:03.398Z,3.15
2018-08-17T11:20:32.246Z,4.45
2018-08-17T11:23:01.051Z,2.37
2018-08-17T11:25:30.102Z,2.20
2018-08-17T11:27:59.077Z,6.30
2018-08-17T11:30:28.010Z,2.45
2018-08-17T11:32:56.888Z,2.25
2018-08-17T11:35:25.891Z,2.08
2018-08-17T11:37:54.817Z,2.62
2018-08-17T11:40:24.146Z,2.67
2018-08-17T11:42:53.399Z,3.17
2018-08-17T11:45:23.630Z,2.35
2018-08-17T11:47:53.100Z,2.77
2018-08-17T11:50:23.295Z,3.98
2018-08-17T11:52:54.601Z,2.05
2018-08-17T11:55:24.451Z,5.50
2018-08-17T11:57:53.741Z,3.42
2018-08-17T12:00:22.865Z,2.35
2018-08-17T12:02:51.877Z,3.33
2018-08-17T12:05:21.259Z,2.40
2018-08-17T12:07:50.531Z,2.40
2018-08-17T12:10:19.507Z,3.92
2018-08-17T12:12:48.431Z,3.72
2018-08-17T12:15:17.217Z,2.67
2018-08-17T12:17:46.197Z,2.45
2018-08-17T12:20:15.072Z,3.35
2018-08-17T12:22:43.900Z,3.17
2018-08-17T12:25:13.012Z,4.37
2018-08-17T12:27:46.820Z,2.02
2018-08-17T12:30:15.826Z,2.00
2018-08-17T12:32:44.890Z,3.70
2018-08-17T12:35:13.884Z,1.95
2018-08-17T12:37:42.917Z,3.12
2018-08-17T12:40:12.132Z,3.00
2018-08-17T12:42:40.938Z,2.05
2018-08-17T12:45:14.956Z,2.58
2018-08-17T12:47:43.328Z,2.12
2018-08-17T12:50:12.378Z,2.42
2018-08-17T12:52:41.144Z,2.15
2018-08-17T12:55:10.029Z,4.58
2018-08-17T12:57:40.791Z,4.33
2018-08-17T13:00:09.941Z,3.05
2018-08-17T13:02:39.184Z,2.50
2018-08-17T13:05:08.381Z,2.72
2018-08-17T13:07:37.409Z,3.42
2018-08-17T13:10:06.897Z,4.45
2018-08-17T13:12:35.869Z,3.25
2018-08-17T13:15:04.884Z,3.10
2018-08-17T13:17:37.938Z,2.67
2018-08-17T13:20:07.212Z,2.10
2018-08-17T13:22:36.478Z,2.30
2018-08-17T13:25:05.465Z,3.47
2018-08-17T13:27:34.638Z,4.35
2018-08-17T13:30:03.837Z,2.65
2018-08-17T13:32:32.675Z,3.12
2018-08-17T13:35:01.628Z,3.50
2018-08-17T13:37:30.833Z,5.25
2018-08-17T13:39:59.896Z,4.95
2018-08-17T13:42:28.776Z,3.20
2018-08-17T13:44:57.678Z,2.37
2018-08-17T13:47:26.674Z,4.33
2018-08-17T13:49:55.621Z,4.03
2018-08-17T13:52:23.899Z,3.02
2018-08-17T13:54:52.192Z,2.65
2018-08-17T13:57:20.614Z,2.08
2018-08-17T13:59:48.883Z,3.30
2018-08-17T14:02:17.917Z,2.70
2018-08-17T14:04:46.798Z,3.27
2018-08-17T14:07:16.214Z,3.60
2018-08-17T14:09:45.109Z,2.35
2018-08-17T14:12:14.152Z,4.85
2018-08-17T14:14:43.040Z,4.92
2018-08-17T14:17:12.053Z,2.08
2018-08-17T14:19:42.934Z,2.17
2018-08-17T14:22:11.873Z,2.85
2018-08-17T14:24:41.131Z,1.90
2018-08-17T14:27:10.134Z,7.15
2018-08-17T14:29:38.861Z,1.82
2018-08-17T14:32:07.893Z,1.92
2018-08-17T14:34:37.281Z,2.33
2018-08-17T14:37:06.342Z,2.10
2018-08-17T14:39:35.443Z,2.55
2018-08-17T14:42:04.544Z,1.90
2018-08-17T14:44:33.700Z,3.33
2018-08-17T14:47:02.763Z,2.85
2018-08-17T14:49:31.667Z,2.45
2018-08-17T14:52:00.464Z,2.02
2018-08-17T14:54:29.255Z,3.35
2018-08-17T14:56:58.045Z,2.55
2018-08-17T14:59:27.068Z,2.55
2018-08-17T15:01:55.879Z,2.33
2018-08-17T15:04:24.815Z,3.50
2018-08-17T15:06:54.359Z,3.10
2018-08-17T15:09:23.101Z,3.33
2018-08-17T15:11:51.925Z,2.75
2018-08-17T15:14:20.588Z,3.25
2018-08-17T15:16:49.637Z,3.27
2018-08-17T15:19:18.507Z,2.15
2018-08-17T15:21:47.347Z,3.47
2018-08-17T15:24:16.152Z,3.65
2018-08-17T15:26:44.994Z,5.00
2018-08-17T15:29:13.952Z,2.10
2018-08-17T15:31:42.779Z,3.35
2018-08-17T15:34:11.717Z,3.20
2018-08-17T15:36:40.604Z,3.67
2018-08-17T15:39:09.769Z,2.08
2018-08-17T15:41:46.042Z,3.33
2018-08-17T15:44:24.364Z,2.12
2018-08-17T15:46:53.787Z,1.90
2018-08-17T15:49:27.795Z,1.95
2018-08-17T15:51:56.735Z,2.58
2018-08-17T15:54:25.965Z,4.92
2018-08-17T15:56:54.793Z,1.95
2018-08-17T15:59:23.966Z,2.00
2018-08-17T16:01:52.811Z,2.17
2018-08-17T16:04:21.933Z,2.77
2018-08-17T16:06:51.279Z,5.65
2018-08-17T16:09:20.185Z,6.80
2018-08-17T16:11:49.231Z,2.87
2018-08-17T16:14:18.215Z,2.58
2018-08-17T16:16:47.454Z,1.95
2018-08-17T16:19:16.329Z,3.25
2018-08-17T16:21:45.353Z,4.20
2018-08-17T16:24:14.779Z,2.17
2018-08-17T16:26:43.785Z,2.90
2018-08-17T16:29:12.810Z,3.27
2018-08-17T16:31:42.800Z,3.52
2018-08-17T16:34:11.823Z,3.10
2018-08-17T16:36:42.399Z,2.05
2018-08-17T16:39:14.648Z,2.98
2018-08-17T16:41:43.850Z,3.55
2018-08-17T16:44:13.837Z,2.98
2018-08-17T16:46:43.432Z,2.98
2018-08-17T16:49:12.617Z,4.40
2018-08-17T16:51:40.871Z,3.15
2018-08-17T16:54:09.257Z,2.50
2018-08-17T16:56:37.738Z,2.50
2018-08-17T16:59:06.260Z,2.35
2018-08-17T17:01:34.810Z,3.47
2018-08-17T17:04:03.260Z,3.45
2018-08-17T17:06:31.600Z,3.37
2018-08-17T17:09:01.491Z,3.42
2018-08-17T17:11:29.933Z,2.42
2018-08-17T17:13:58.340Z,3.50
2018-08-17T17:16:35.211Z,5.87
2018-08-17T17:19:03.758Z,4.22
2018-08-17T17:21:32.027Z,6.05
2018-08-17T17:24:01.007Z,5.92
2018-08-17T17:26:29.734Z,2.65
2018-08-17T17:28:58.633Z,2.58
2018-08-17T17:31:27.507Z,7.05
2018-08-17T17:33:56.296Z,3.00
2018-08-17T17:36:25.147Z,3.92
2018-08-17T17:38:53.473Z,4.83
2018-08-17T17:41:21.747Z,3.87
2018-08-17T17:43:49.998Z,4.07
2018-08-17T17:46:19.015Z,4.00
2018-08-17T17:48:47.825Z,2.92
2018-08-17T17:51:16.641Z,6.63
2018-08-17T17:53:45.748Z,3.98
2018-08-17T17:56:14.839Z,4.07
2018-08-17T17:58:43.972Z,4.67
2018-08-17T18:01:12.935Z,7.00
2018-08-17T18:03:45.561Z,8.23
2018-08-17T18:06:14.706Z,7.50
2018-08-17T18:08:43.596Z,4.37
2018-08-17T18:11:14.889Z,2.33
2018-08-17T18:13:43.897Z,4.97
2018-08-17T18:16:12.967Z,3.47
2018-08-17T18:18:42.140Z,3.73
2018-08-17T18:21:10.954Z,2.50
2018-08-17T18:23:40.304Z,3.07
2018-08-17T18:26:15.308Z,4.58
2018-08-17T18:28:44.569Z,5.67
2018-08-17T18:31:13.522Z,3.87
2018-08-17T18:33:42.540Z,4.77
2018-08-17T18:36:11.429Z,3.50
2018-08-17T18:38:40.640Z,4.60
2018-08-17T18:41:09.831Z,5.13
2018-08-17T18:43:38.789Z,2.30
2018-08-17T18:46:07.774Z,1.80
2018-08-17T18:48:37.089Z,2.83
2018-08-17T18:51:05.994Z,3.00
2018-08-17T18:53:35.008Z,3.23
2018-08-17T18:56:04.244Z,2.30
2018-08-17T18:58:33.562Z,8.17
2018-08-17T19:01:02.428Z,9.07
2018-08-17T19:03:31.245Z,6.77
2018-08-17T19:06:00.248Z,4.30
2018-08-17T19:08:29.268Z,3.73
2018-08-17T19:10:58.068Z,3.50
2018-08-17T19:13:27.372Z,3.30
2018-08-17T19:15:56.549Z,3.77
2018-08-17T19:18:30.105Z,4.53
2018-08-17T19:21:04.328Z,6.07
2018-08-17T19:23:33.703Z,5.00
2018-08-17T19:26:02.732Z,4.30
2018-08-17T19:28:31.722Z,4.97
2018-08-17T19:31:00.819Z,4.70
2018-08-17T19:33:30.209Z,6.17
2018-08-17T19:35:59.059Z,6.57
2018-08-17T19:38:28.203Z,6.50
2018-08-17T19:40:57.379Z,4.03
2018-08-17T19:43:26.280Z,5.87
2018-08-17T19:45:55.394Z,3.80
2018-08-17T19:48:25.475Z,4.03
2018-08-17T19:50:54.517Z,5.03
2018-08-17T19:53:23.767Z,4.93
2018-08-17T19:55:52.973Z,3.63
2018-08-17T19:58:21.793Z,5.37
2018-08-17T20:00:50.809Z,6.37
2018-08-17T20:03:19.588Z,5.87
2018-08-17T20:05:48.796Z,7.13
2018-08-17T20:08:18.092Z,4.40
2018-08-17T20:10:47.346Z,4.13
2018-08-17T20:13:16.320Z,3.80
2018-08-17T20:15:45.798Z,4.17
2018-08-17T20:18:14.900Z,4.73
2018-08-17T20:20:44.082Z,6.20
2018-08-17T20:23:13.206Z,4.63
2018-08-17T20:25:42.424Z,8.83
2018-08-17T20:28:11.678Z,4.63
2018-08-17T20:30:40.699Z,7.07
2018-08-17T20:33:15.824Z,4.87
2018-08-17T20:35:44.529Z,5.60
2018-08-17T20:38:12.875Z,4.43
2018-08-17T20:40:41.314Z,4.40
2018-08-17T20:43:11.347Z,6.80
2018-08-17T20:45:39.686Z,4.80
2018-08-17T20:48:08.021Z,4.30
2018-08-17T20:50:36.395Z,5.43
2018-08-17T20:53:04.847Z,5.23
2018-08-17T20:55:33.369Z,5.83
2018-08-17T20:58:01.797Z,4.63
2018-08-17T21:00:30.321Z,4.97
2018-08-17T21:02:58.717Z,4.87
2018-08-17T21:05:27.252Z,4.67
2018-08-17T21:07:55.521Z,5.60
2018-08-17T21:10:23.862Z,4.97
2018-08-17T21:12:52.307Z,5.63
2018-08-17T21:15:20.677Z,5.33
2018-08-17T21:17:49.300Z,5.47
2018-08-17T21:20:17.562Z,4.90
2018-08-17T21:22:45.843Z,5.90
2018-08-17T21:25:14.124Z,6.87
2018-08-17T21:27:42.432Z,6.47
2018-08-17T21:30:11.052Z,5.70
2018-08-17T21:32:39.397Z,5.43
2018-08-17T21:35:08.183Z,6.10
2018-08-17T21:37:36.750Z,5.67
2018-08-17T21:40:06.886Z,6.57
2018-08-17T21:42:35.141Z,6.10
2018-08-17T21:45:03.413Z,6.20
2018-08-17T21:47:31.773Z,7.77
2018-08-17T21:50:06.208Z,8.47
2018-08-17T21:52:34.466Z,5.83
2018-08-17T21:55:02.828Z,6.63
2018-08-17T21:57:31.199Z,6.53
2018-08-17T21:59:59.454Z,6.00
2018-08-17T22:02:27.727Z,6.63
2018-08-17T22:04:56.009Z,7.17
2018-08-17T22:07:25.021Z,6.23
2018-08-17T22:09:54.047Z,6.70
2018-08-17T22:12:22.367Z,7.37
2018-08-17T22:14:50.610Z,6.37
2018-08-17T22:17:31.798Z,6.40
2018-08-17T22:20:00.298Z,7.30
2018-08-17T22:22:28.549Z,7.30
2018-08-17T22:24:57.918Z,7.33
2018-08-17T22:27:27.314Z,7.70
2018-08-17T22:29:56.723Z,7.73
2018-08-17T22:32:25.351Z,7.73
2018-08-17T22:34:53.941Z,7.23
2018-08-17T22:37:22.198Z,8.67
2018-08-17T22:39:50.458Z,11.97
2018-08-17T22:42:21.291Z,8.30
2018-08-17T22:44:49.777Z,8.47
2018-08-17T22:47:20.910Z,8.80
2018-08-17T22:49:50.333Z,9.07
2018-08-17T22:52:18.610Z,8.13
2018-08-17T22:54:58.340Z,8.07
2018-08-17T22:57:27.377Z,8.53
2018-08-17T23:00:09.196Z,7.83
2018-08-17T23:02:37.707Z,8.80
2018-08-17T23:05:07.716Z,8.53
2018-08-17T23:07:35.998Z,10.00
2018-08-17T23:10:04.927Z,9.77
2018-08-17T23:12:33.203Z,8.70
2018-08-17T23:15:01.448Z,9.27
2018-08-17T23:17:29.751Z,9.87
2018-08-17T23:19:58.659Z,8.60
2018-08-17T23:22:26.928Z,8.77
2018-08-17T23:24:55.200Z,8.57
2018-08-17T23:27:23.506Z,8.77
2018-08-17T23:29:51.790Z,9.90
2018-08-17T23:32:20.051Z,8.97
2018-08-17T23:34:48.303Z,8.97
2018-08-17T23:37:16.577Z,8.40
2018-08-17T23:39:44.822Z,8.57
2018-08-17T23:42:13.099Z,11.30
2018-08-17T23:44:41.356Z,9.13
2018-08-17T23:47:09.626Z,9.97
2018-08-17T23:49:37.883Z,9.20
2018-08-17T23:52:06.188Z,9.83
2018-08-17T23:54:34.438Z,9.37
2018-08-17T23:57:02.778Z,8.23
2018-08-17T23:59:31.040Z,9.23
